createdAt,value
2023-02-17T00:00:25.786Z,91.89
2023-02-17T00:01:25.748Z,91.78
2023-02-17T00:02:25.816Z,91.78
2023-02-17T00:03:25.779Z,91.89
2023-02-17T00:04:25.709Z,91.78
2023-02-17T00:05:25.689Z,91.78
2023-02-17T00:06:25.697Z,91.89
2023-02-17T00:07:25.695Z,91.78
2023-02-17T00:08:25.673Z,91.89
2023-02-17T00:09:25.694Z,91.89
2023-02-17T00:10:25.617Z,92.03
2023-02-17T00:11:25.624Z,91.99
2023-02-17T00:12:25.596Z,91.99
2023-02-17T00:13:25.649Z,91.99
2023-02-17T00:14:25.595Z,91.99
2023-02-17T00:15:25.644Z,91.99
2023-02-17T00:16:25.565Z,91.99
2023-02-17T00:17:25.548Z,91.99
2023-02-17T00:18:25.545Z,91.99
2023-02-17T00:19:25.649Z,91.99
2023-02-17T00:20:25.513Z,91.99
2023-02-17T00:21:25.536Z,91.89
2023-02-17T00:22:25.482Z,91.78
2023-02-17T00:23:25.486Z,91.78
2023-02-17T00:24:25.451Z,91.89
2023-02-17T00:25:25.455Z,91.78
2023-02-17T00:26:25.430Z,91.78
2023-02-17T00:27:25.440Z,91.69
2023-02-17T00:28:25.402Z,91.69
2023-02-17T00:29:25.454Z,91.69
2023-02-17T00:30:25.471Z,91.69
2023-02-17T00:31:25.499Z,91.78
2023-02-17T00:32:25.363Z,91.89
2023-02-17T00:33:25.388Z,92.10
2023-02-17T00:34:25.351Z,92.19
2023-02-17T00:35:25.359Z,92.19
2023-02-17T00:36:25.320Z,92.10
2023-02-17T00:37:25.322Z,92.10
2023-02-17T00:38:25.290Z,91.99
2023-02-17T00:39:25.282Z,92.10
2023-02-17T00:40:25.288Z,92.10
2023-02-17T00:41:25.278Z,92.10
2023-02-17T00:42:25.248Z,92.10
2023-02-17T00:43:25.235Z,92.30
2023-02-17T00:44:25.230Z,92.30
2023-02-17T00:45:25.220Z,92.40
2023-02-17T00:46:25.201Z,92.50
2023-02-17T00:47:25.217Z,92.50
2023-02-17T00:48:25.166Z,92.50
2023-02-17T00:49:25.164Z,92.40
2023-02-17T00:50:25.128Z,92.40
2023-02-17T00:51:25.135Z,92.40
2023-02-17T00:52:25.132Z,92.50
2023-02-17T00:53:25.109Z,92.50
2023-02-17T00:54:25.076Z,92.60
2023-02-17T00:55:25.083Z,92.60
2023-02-17T00:56:25.080Z,92.60
2023-02-17T00:57:25.092Z,92.81
2023-02-17T00:58:25.077Z,92.81
2023-02-17T00:59:25.047Z,92.81
2023-02-17T01:00:25.004Z,92.81
2023-02-17T01:01:24.970Z,92.71
2023-02-17T01:02:24.975Z,92.71
2023-02-17T01:03:24.970Z,92.81
2023-02-17T01:04:25.056Z,92.81
2023-02-17T01:05:24.948Z,92.91
2023-02-17T01:06:24.928Z,93.01
2023-02-17T01:07:24.885Z,93.01
2023-02-17T01:08:24.915Z,93.12
2023-02-17T01:09:24.898Z,93.22
2023-02-17T01:10:24.889Z,93.22
2023-02-17T01:11:24.876Z,93.12
2023-02-17T01:12:24.864Z,93.22
2023-02-17T01:13:25.112Z,93.22
2023-02-17T01:14:24.840Z,93.12
2023-02-17T01:15:24.812Z,93.32
2023-02-17T01:16:24.876Z,93.32
2023-02-17T01:17:24.793Z,93.32
2023-02-17T01:18:24.777Z,93.32
2023-02-17T01:19:24.780Z,93.32
2023-02-17T01:20:24.724Z,93.22
2023-02-17T01:21:24.761Z,93.22
2023-02-17T01:22:24.719Z,93.22
2023-02-17T01:23:24.713Z,93.12
2023-02-17T01:24:24.665Z,93.12
2023-02-17T01:25:24.699Z,93.12
2023-02-17T01:26:24.669Z,93.12
2023-02-17T01:27:24.661Z,93.12
2023-02-17T01:28:24.651Z,93.22
2023-02-17T01:29:24.641Z,93.22
2023-02-17T01:30:24.658Z,93.22
2023-02-17T01:31:24.719Z,93.22
2023-02-17T01:32:24.595Z,93.22
2023-02-17T01:33:24.613Z,93.32
2023-02-17T01:34:24.543Z,93.32
2023-02-17T01:35:24.550Z,93.43
2023-02-17T01:36:24.559Z,93.43
2023-02-17T01:37:24.551Z,93.43
2023-02-17T01:38:24.515Z,93.43
2023-02-17T01:39:24.529Z,93.32
2023-02-17T01:40:24.489Z,93.32
2023-02-17T01:41:24.495Z,93.22
2023-02-17T01:42:24.482Z,93.12
2023-02-17T01:43:24.454Z,93.12
2023-02-17T01:44:24.439Z,93.12
2023-02-17T01:45:24.473Z,93.12
2023-02-17T01:46:24.402Z,93.12
2023-02-17T01:47:24.407Z,93.12
2023-02-17T01:48:24.353Z,93.12
2023-02-17T01:49:24.422Z,93.12
2023-02-17T01:50:24.369Z,93.22
2023-02-17T01:51:24.367Z,93.22
2023-02-17T01:52:24.318Z,93.22
2023-02-17T01:53:24.377Z,93.22
2023-02-17T01:54:24.300Z,93.32
2023-02-17T01:55:24.327Z,93.43
2023-02-17T01:56:24.270Z,93.52
2023-02-17T01:57:24.272Z,93.52
2023-02-17T01:58:24.260Z,93.52
2023-02-17T01:59:24.247Z,93.52
2023-02-17T02:00:24.208Z,93.52
2023-02-17T02:01:24.237Z,93.52
2023-02-17T02:02:24.426Z,93.43
2023-02-17T02:03:24.196Z,93.32
2023-02-17T02:04:24.166Z,93.32
2023-02-17T02:05:24.164Z,93.32
2023-02-17T02:06:24.149Z,93.32
2023-02-17T02:07:24.111Z,93.32
2023-02-17T02:08:24.145Z,93.32
2023-02-17T02:09:24.124Z,93.43
2023-02-17T02:10:24.131Z,93.43
2023-02-17T02:11:24.086Z,93.43
2023-02-17T02:12:24.049Z,93.43
2023-02-17T02:13:24.097Z,93.32
2023-02-17T02:14:24.019Z,93.43
2023-02-17T02:15:24.052Z,93.43
2023-02-17T02:16:24.061Z,93.43
2023-02-17T02:17:24.023Z,93.43
2023-02-17T02:18:24.005Z,93.52
2023-02-17T02:19:24.009Z,93.52
2023-02-17T02:20:23.966Z,93.43
2023-02-17T02:21:24.010Z,93.43
2023-02-17T02:22:23.958Z,93.52
2023-02-17T02:23:23.915Z,93.52
2023-02-17T02:24:23.939Z,93.43
2023-02-17T02:25:23.881Z,93.43
2023-02-17T02:26:23.870Z,93.43
2023-02-17T02:27:23.948Z,93.43
2023-02-17T02:28:23.839Z,93.43
2023-02-17T02:29:23.850Z,93.43
2023-02-17T02:30:23.917Z,93.43
2023-02-17T02:31:23.911Z,93.32
2023-02-17T02:32:23.848Z,93.32
2023-02-17T02:33:23.813Z,93.28
2023-02-17T02:34:23.782Z,93.28
2023-02-17T02:35:23.763Z,93.07
2023-02-17T02:36:23.758Z,93.07
2023-02-17T02:37:23.786Z,93.18
2023-02-17T02:38:23.747Z,93.18
2023-02-17T02:39:23.708Z,93.18
2023-02-17T02:40:23.718Z,93.07
2023-02-17T02:41:23.681Z,92.97
2023-02-17T02:42:23.674Z,92.97
2023-02-17T02:43:23.707Z,92.97
2023-02-17T02:44:23.652Z,92.97
2023-02-17T02:45:23.683Z,92.87
2023-02-17T02:46:23.619Z,92.87
2023-02-17T02:47:23.615Z,92.87
2023-02-17T02:48:23.591Z,92.97
2023-02-17T02:49:23.590Z,92.97
2023-02-17T02:50:23.616Z,93.07
2023-02-17T02:51:23.593Z,93.07
2023-02-17T02:52:23.550Z,93.07
2023-02-17T02:53:23.539Z,93.07
2023-02-17T02:54:23.515Z,93.18
2023-02-17T02:55:23.513Z,93.18
2023-02-17T02:56:23.477Z,93.18
2023-02-17T02:57:23.530Z,93.07
2023-02-17T02:58:23.497Z,93.07
2023-02-17T02:59:23.476Z,92.97
2023-02-17T03:00:23.459Z,92.87
2023-02-17T03:01:23.480Z,92.87
2023-02-17T03:02:23.474Z,92.97
2023-02-17T03:03:23.460Z,93.07
2023-02-17T03:04:23.373Z,92.97
2023-02-17T03:05:23.398Z,93.07
2023-02-17T03:06:23.382Z,93.07
2023-02-17T03:07:23.363Z,93.07
2023-02-17T03:08:23.376Z,93.07
2023-02-17T03:09:23.363Z,92.97
2023-02-17T03:10:23.295Z,92.97
2023-02-17T03:11:23.295Z,92.97
2023-02-17T03:12:23.305Z,92.97
2023-02-17T03:13:23.362Z,92.77
2023-02-17T03:14:23.345Z,92.77
2023-02-17T03:15:23.300Z,92.77
2023-02-17T03:16:23.353Z,92.66
2023-02-17T03:17:23.254Z,92.56
2023-02-17T03:18:23.240Z,92.56
2023-02-17T03:19:23.230Z,92.66
2023-02-17T03:20:23.168Z,92.77
2023-02-17T03:21:23.174Z,92.66
2023-02-17T03:22:23.154Z,92.56
2023-02-17T03:23:23.187Z,92.46
2023-02-17T03:24:23.133Z,92.46
2023-02-17T03:25:23.169Z,92.36
2023-02-17T03:26:23.120Z,92.36
2023-02-17T03:27:23.098Z,92.46
2023-02-17T03:28:23.120Z,92.46
2023-02-17T03:29:23.083Z,92.46
2023-02-17T03:30:23.104Z,92.56
2023-02-17T03:31:23.142Z,92.36
2023-02-17T03:32:23.129Z,92.36
2023-02-17T03:33:23.014Z,92.36
2023-02-17T03:34:23.051Z,92.36
2023-02-17T03:35:23.006Z,92.25
2023-02-17T03:36:23.019Z,92.15
2023-02-17T03:37:22.988Z,92.25
2023-02-17T03:38:22.970Z,92.25
2023-02-17T03:39:22.941Z,92.36
2023-02-17T03:40:22.954Z,92.46
2023-02-17T03:41:22.937Z,92.46
2023-02-17T03:42:22.926Z,92.46
2023-02-17T03:43:22.918Z,92.46
2023-02-17T03:44:22.877Z,92.46
2023-02-17T03:45:22.928Z,92.46
2023-02-17T03:46:22.927Z,92.36
2023-02-17T03:47:22.856Z,92.46
2023-02-17T03:48:22.831Z,92.36
2023-02-17T03:49:22.844Z,92.36
2023-02-17T03:50:22.827Z,92.15
2023-02-17T03:51:22.826Z,92.05
2023-02-17T03:52:22.766Z,92.15
2023-02-17T03:53:22.782Z,92.15
2023-02-17T03:54:22.779Z,92.15
2023-02-17T03:55:22.762Z,92.15
2023-02-17T03:56:22.725Z,92.15
2023-02-17T03:57:22.695Z,92.15
2023-02-17T03:58:22.754Z,92.15
2023-02-17T03:59:22.692Z,92.25
2023-02-17T04:00:22.666Z,92.25
2023-02-17T04:01:22.717Z,92.25
2023-02-17T04:02:22.642Z,92.25
2023-02-17T04:03:22.660Z,92.25
2023-02-17T04:04:22.661Z,92.25
2023-02-17T04:05:22.635Z,92.25
2023-02-17T04:06:22.652Z,92.25
2023-02-17T04:07:22.617Z,92.15
2023-02-17T04:08:22.593Z,92.15
2023-02-17T04:09:22.627Z,92.15
2023-02-17T04:10:22.600Z,91.95
2023-02-17T04:11:22.524Z,91.85
2023-02-17T04:12:22.545Z,91.95
2023-02-17T04:13:22.534Z,91.95
2023-02-17T04:14:22.525Z,91.95
2023-02-17T04:15:22.529Z,92.05
2023-02-17T04:16:22.492Z,92.05
2023-02-17T04:17:22.433Z,92.05
2023-02-17T04:18:22.462Z,92.05
2023-02-17T04:19:23.473Z,92.05
2023-02-17T04:20:22.446Z,92.05
2023-02-17T04:21:22.400Z,92.05
2023-02-17T04:22:22.359Z,92.15
2023-02-17T04:23:22.410Z,92.05
2023-02-17T04:24:22.398Z,92.05
2023-02-17T04:25:22.365Z,92.05
2023-02-17T04:26:22.317Z,92.05
2023-02-17T04:27:22.338Z,92.05
2023-02-17T04:28:22.327Z,91.95
2023-02-17T04:29:22.326Z,91.95
2023-02-17T04:30:22.357Z,91.85
2023-02-17T04:31:22.421Z,91.85
2023-02-17T04:32:22.266Z,91.85
2023-02-17T04:33:22.276Z,91.95
2023-02-17T04:34:22.255Z,91.95
2023-02-17T04:35:22.235Z,91.85
2023-02-17T04:36:22.220Z,91.74
2023-02-17T04:37:22.176Z,91.74
2023-02-17T04:38:22.167Z,91.74
2023-02-17T04:39:22.174Z,91.70
2023-02-17T04:40:22.160Z,91.64
2023-02-17T04:41:22.154Z,91.74
2023-02-17T04:42:22.167Z,91.74
2023-02-17T04:43:22.143Z,91.70
2023-02-17T04:44:22.075Z,91.60
2023-02-17T04:45:22.085Z,91.60
2023-02-17T04:46:22.117Z,91.60
2023-02-17T04:47:22.122Z,91.60
2023-02-17T04:48:22.045Z,91.64
2023-02-17T04:49:22.045Z,91.74
2023-02-17T04:50:22.031Z,91.60
2023-02-17T04:51:22.034Z,91.60
2023-02-17T04:52:22.037Z,91.60
2023-02-17T04:53:22.028Z,91.64
2023-02-17T04:54:21.956Z,91.74
2023-02-17T04:55:21.955Z,91.70
2023-02-17T04:56:21.967Z,91.74
2023-02-17T04:57:21.933Z,91.74
2023-02-17T04:58:21.940Z,91.74
2023-02-17T04:59:23.188Z,91.74
2023-02-17T05:00:21.898Z,91.85
2023-02-17T05:01:21.979Z,91.85
2023-02-17T05:02:21.905Z,91.74
2023-02-17T05:03:21.894Z,91.74
2023-02-17T05:04:21.928Z,91.64
2023-02-17T05:05:21.874Z,91.64
2023-02-17T05:06:21.822Z,91.64
2023-02-17T05:07:21.840Z,91.50
2023-02-17T05:08:21.838Z,91.50
2023-02-17T05:09:21.765Z,91.39
2023-02-17T05:10:23.901Z,91.44
2023-02-17T05:11:21.779Z,91.54
2023-02-17T05:12:22.782Z,91.54
2023-02-17T05:13:21.709Z,91.54
2023-02-17T05:14:21.751Z,91.64
2023-02-17T05:15:21.693Z,91.50
2023-02-17T05:16:21.744Z,91.54
2023-02-17T05:17:21.667Z,91.50
2023-02-17T05:18:21.658Z,91.50
2023-02-17T05:19:21.619Z,91.39
2023-02-17T05:20:21.639Z,91.44
2023-02-17T05:21:21.629Z,91.54
2023-02-17T05:22:21.600Z,91.54
2023-02-17T05:23:21.633Z,91.50
2023-02-17T05:24:21.595Z,91.39
2023-02-17T05:25:21.570Z,91.54
2023-02-17T05:26:21.611Z,91.54
2023-02-17T05:27:21.558Z,91.39
2023-02-17T05:28:21.598Z,91.29
2023-02-17T05:29:21.498Z,91.19
2023-02-17T05:30:21.653Z,91.19
2023-02-17T05:31:21.663Z,91.09
2023-02-17T05:32:21.542Z,91.09
2023-02-17T05:33:21.475Z,91.09
2023-02-17T05:34:21.453Z,91.09
2023-02-17T05:35:21.432Z,91.09
2023-02-17T05:36:21.504Z,91.09
2023-02-17T05:37:28.490Z,91.19
2023-02-17T05:38:21.429Z,91.19
2023-02-17T05:39:21.398Z,91.19
2023-02-17T05:40:21.399Z,91.09
2023-02-17T05:41:21.410Z,91.09
2023-02-17T05:42:21.363Z,91.09
2023-02-17T05:43:21.358Z,90.99
2023-02-17T05:44:21.340Z,90.99
2023-02-17T05:45:21.305Z,90.99
2023-02-17T05:46:21.393Z,90.99
2023-02-17T05:47:21.269Z,90.99
2023-02-17T05:48:21.312Z,91.09
2023-02-17T05:49:21.277Z,91.19
2023-02-17T05:50:21.256Z,91.19
2023-02-17T05:51:21.211Z,91.19
2023-02-17T05:52:21.286Z,91.19
2023-02-17T05:53:21.216Z,91.09
2023-02-17T05:54:21.189Z,91.19
2023-02-17T05:55:21.197Z,91.19
2023-02-17T05:56:21.199Z,91.29
2023-02-17T05:57:21.154Z,91.29
2023-02-17T05:58:21.148Z,91.29
2023-02-17T05:59:21.121Z,91.29
2023-02-17T06:00:21.134Z,91.39
2023-02-17T06:01:21.087Z,91.39
2023-02-17T06:02:21.105Z,91.39
2023-02-17T06:03:21.116Z,91.39
2023-02-17T06:04:21.138Z,91.50
2023-02-17T06:05:21.052Z,91.50
2023-02-17T06:06:21.090Z,91.50
2023-02-17T06:07:21.042Z,91.50
2023-02-17T06:08:21.027Z,91.50
2023-02-17T06:09:21.009Z,91.39
2023-02-17T06:10:21.012Z,91.39
2023-02-17T06:11:20.992Z,91.50
2023-02-17T06:12:20.980Z,91.50
2023-02-17T06:13:20.963Z,91.50
2023-02-17T06:14:20.935Z,91.60
2023-02-17T06:15:20.901Z,91.60
2023-02-17T06:16:21.102Z,91.80
2023-02-17T06:17:20.900Z,91.80
2023-02-17T06:18:20.909Z,91.80
2023-02-17T06:19:20.871Z,91.80
2023-02-17T06:20:20.878Z,91.80
2023-02-17T06:21:20.835Z,91.70
2023-02-17T06:22:20.821Z,91.70
2023-02-17T06:23:20.829Z,91.70
2023-02-17T06:24:20.842Z,91.80
2023-02-17T06:25:20.797Z,91.80
2023-02-17T06:26:20.861Z,91.70
2023-02-17T06:27:20.782Z,91.70
2023-02-17T06:28:20.794Z,91.70
2023-02-17T06:29:20.756Z,91.70
2023-02-17T06:30:20.826Z,91.80
2023-02-17T06:31:20.828Z,91.91
2023-02-17T06:32:20.725Z,91.80
2023-02-17T06:33:20.720Z,91.80
2023-02-17T06:34:20.718Z,92.01
2023-02-17T06:35:20.683Z,92.11
2023-02-17T06:36:20.638Z,92.11
2023-02-17T06:37:20.654Z,92.11
2023-02-17T06:38:20.728Z,92.11
2023-02-17T06:39:20.620Z,92.21
2023-02-17T06:40:20.621Z,92.42
2023-02-17T06:41:20.605Z,92.52
2023-02-17T06:42:20.566Z,92.52
2023-02-17T06:43:20.568Z,92.42
2023-02-17T06:44:20.560Z,92.27
2023-02-17T06:45:20.616Z,92.32
2023-02-17T06:46:20.538Z,92.42
2023-02-17T06:47:20.520Z,92.37
2023-02-17T06:48:20.518Z,92.42
2023-02-17T06:49:20.479Z,92.52
2023-02-17T06:50:20.485Z,92.58
2023-02-17T06:51:20.470Z,92.68
2023-02-17T06:52:20.431Z,92.68
2023-02-17T06:53:20.426Z,92.72
2023-02-17T06:54:20.458Z,92.83
2023-02-17T06:55:20.393Z,92.93
2023-02-17T06:56:21.259Z,93.13
2023-02-17T06:57:20.382Z,93.09
2023-02-17T06:58:20.389Z,93.09
2023-02-17T06:59:20.337Z,92.99
2023-02-17T07:00:20.358Z,92.88
2023-02-17T07:01:20.314Z,92.99
2023-02-17T07:02:20.436Z,92.99
2023-02-17T07:03:20.309Z,92.88
2023-02-17T07:04:20.320Z,92.88
2023-02-17T07:05:20.258Z,92.88
2023-02-17T07:06:20.251Z,92.88
2023-02-17T07:07:20.262Z,92.88
2023-02-17T07:08:20.302Z,92.99
2023-02-17T07:09:20.248Z,93.40
2023-02-17T07:10:20.228Z,93.80
2023-02-17T07:11:20.209Z,94.21
2023-02-17T07:12:20.191Z,94.62
2023-02-17T07:13:20.302Z,94.93
2023-02-17T07:14:20.152Z,95.23
2023-02-17T07:15:20.179Z,95.44
2023-02-17T07:16:20.146Z,95.59
2023-02-17T07:17:20.136Z,95.69
2023-02-17T07:18:20.127Z,96.00
2023-02-17T07:19:20.081Z,96.00
2023-02-17T07:20:20.091Z,96.00
2023-02-17T07:21:20.085Z,96.00
2023-02-17T07:22:20.078Z,96.10
2023-02-17T07:23:20.022Z,96.10
2023-02-17T07:24:20.042Z,96.00
2023-02-17T07:25:20.025Z,96.00
2023-02-17T07:26:19.992Z,95.79
2023-02-17T07:27:20.026Z,95.69
2023-02-17T07:28:19.978Z,95.69
2023-02-17T07:29:19.988Z,95.79
2023-02-17T07:30:20.042Z,95.69
2023-02-17T07:31:19.972Z,95.69
2023-02-17T07:32:19.923Z,95.69
2023-02-17T07:33:19.910Z,95.69
2023-02-17T07:34:19.927Z,95.89
2023-02-17T07:35:19.896Z,95.85
2023-02-17T07:36:19.896Z,95.75
2023-02-17T07:37:19.865Z,95.75
2023-02-17T07:38:19.849Z,95.75
2023-02-17T07:39:19.829Z,95.64
2023-02-17T07:40:19.845Z,95.44
2023-02-17T07:41:19.806Z,95.44
2023-02-17T07:42:19.797Z,95.44
2023-02-17T07:43:19.762Z,95.44
2023-02-17T07:44:19.800Z,95.44
2023-02-17T07:45:19.771Z,95.44
2023-02-17T07:46:19.933Z,95.44
2023-02-17T07:47:19.735Z,95.54
2023-02-17T07:48:19.704Z,95.64
2023-02-17T07:49:19.720Z,95.54
2023-02-17T07:50:19.712Z,95.54
2023-02-17T07:51:19.712Z,95.54
2023-02-17T07:52:19.721Z,95.54
2023-02-17T07:53:19.651Z,95.54
2023-02-17T07:54:19.673Z,95.54
2023-02-17T07:55:19.623Z,95.44
2023-02-17T07:56:19.637Z,95.44
2023-02-17T07:57:19.620Z,95.44
2023-02-17T07:58:19.585Z,95.54
2023-02-17T07:59:19.557Z,95.54
2023-02-17T08:00:19.584Z,95.44
2023-02-17T08:01:19.569Z,95.44
2023-02-17T08:02:19.581Z,95.34
2023-02-17T08:03:19.529Z,95.44
2023-02-17T08:04:19.533Z,95.29
2023-02-17T08:05:20.493Z,95.19
2023-02-17T08:06:19.487Z,95.09
2023-02-17T08:07:19.479Z,95.09
2023-02-17T08:08:19.464Z,94.98
2023-02-17T08:09:19.464Z,94.89
2023-02-17T08:10:19.419Z,94.68
2023-02-17T08:11:19.409Z,94.68
2023-02-17T08:12:19.407Z,94.68
2023-02-17T08:13:19.438Z,94.78
2023-02-17T08:14:19.377Z,94.78
2023-02-17T08:15:19.377Z,94.89
2023-02-17T08:16:19.388Z,94.98
2023-02-17T08:17:19.344Z,94.98
2023-02-17T08:18:19.357Z,94.89
2023-02-17T08:19:19.354Z,94.78
2023-02-17T08:20:19.300Z,94.78
2023-02-17T08:21:19.294Z,94.68
2023-02-17T08:22:19.310Z,94.68
2023-02-17T08:23:19.284Z,94.64
2023-02-17T08:24:19.296Z,94.64
2023-02-17T08:25:19.273Z,94.64
2023-02-17T08:26:19.222Z,94.43
2023-02-17T08:27:19.231Z,94.33
2023-02-17T08:28:19.212Z,94.33
2023-02-17T08:29:19.189Z,94.33
2023-02-17T08:30:19.228Z,94.33
2023-02-17T08:31:19.295Z,94.12
2023-02-17T08:32:19.212Z,94.12
2023-02-17T08:33:19.143Z,94.02
2023-02-17T08:34:19.183Z,93.98
2023-02-17T08:35:19.130Z,93.88
2023-02-17T08:36:19.136Z,93.77
2023-02-17T08:37:19.094Z,93.57
2023-02-17T08:38:19.070Z,93.57
2023-02-17T08:39:19.081Z,93.47
2023-02-17T08:40:19.089Z,93.47
2023-02-17T08:41:19.050Z,93.47
2023-02-17T08:42:19.050Z,93.47
2023-02-17T08:43:19.026Z,93.47
2023-02-17T08:44:19.024Z,93.37
2023-02-17T08:45:18.983Z,93.37
2023-02-17T08:46:19.068Z,93.37
2023-02-17T08:47:18.973Z,93.26
2023-02-17T08:48:19.822Z,93.16
2023-02-17T08:49:18.958Z,93.26
2023-02-17T08:50:18.964Z,93.26
2023-02-17T08:51:18.934Z,93.26
2023-02-17T08:52:18.885Z,93.12
2023-02-17T08:53:18.862Z,92.91
2023-02-17T08:54:18.893Z,92.91
2023-02-17T08:55:18.874Z,93.02
2023-02-17T08:56:18.861Z,92.91
2023-02-17T08:57:18.819Z,92.81
2023-02-17T08:58:18.886Z,92.71
2023-02-17T08:59:18.808Z,92.71
2023-02-17T09:00:18.948Z,92.61
2023-02-17T09:01:18.851Z,92.50
2023-02-17T09:02:18.772Z,92.61
2023-02-17T09:03:18.744Z,92.61
2023-02-17T09:04:18.886Z,92.61
2023-02-17T09:05:18.730Z,92.61
2023-02-17T09:06:18.734Z,92.50
2023-02-17T09:07:18.727Z,92.50
2023-02-17T09:08:18.708Z,92.50
2023-02-17T09:09:18.699Z,92.50
2023-02-17T09:10:18.701Z,92.50
2023-02-17T09:11:18.727Z,92.41
2023-02-17T09:12:18.646Z,92.41
2023-02-17T09:13:18.630Z,92.36
2023-02-17T09:14:18.613Z,92.16
2023-02-17T09:15:18.683Z,91.96
2023-02-17T09:16:18.618Z,91.96
2023-02-17T09:17:18.640Z,91.96
2023-02-17T09:18:18.582Z,91.85
2023-02-17T09:19:18.591Z,91.75
2023-02-17T09:20:24.753Z,91.65
2023-02-17T09:21:19.511Z,91.44
2023-02-17T09:22:31.133Z,91.65
2023-02-17T09:23:19.536Z,91.30
2023-02-17T09:24:18.582Z,91.09
2023-02-17T09:25:18.466Z,91.09
2023-02-17T09:26:18.511Z,90.89
2023-02-17T09:27:18.454Z,90.79
2023-02-17T09:28:18.463Z,90.89
2023-02-17T09:29:18.466Z,90.69
2023-02-17T09:30:18.497Z,90.48
2023-02-17T09:31:18.566Z,90.55
2023-02-17T09:32:18.499Z,90.34
2023-02-17T09:33:18.372Z,90.44
2023-02-17T09:34:18.382Z,90.44
2023-02-17T09:35:18.404Z,90.34
2023-02-17T09:36:18.351Z,90.24
2023-02-17T09:37:18.373Z,90.03
2023-02-17T09:38:18.292Z,90.14
2023-02-17T09:39:18.308Z,90.03
2023-02-17T09:40:18.302Z,89.94
2023-02-17T09:41:18.295Z,89.83
2023-02-17T09:42:18.295Z,89.63
2023-02-17T09:43:18.265Z,89.28
2023-02-17T09:44:18.299Z,89.28
2023-02-17T09:45:18.242Z,89.28
2023-02-17T09:46:18.260Z,89.07
2023-02-17T09:47:18.292Z,89.18
2023-02-17T09:48:18.162Z,88.98
2023-02-17T09:49:18.199Z,89.07
2023-02-17T09:50:18.276Z,88.98
2023-02-17T09:51:18.208Z,89.07
2023-02-17T09:52:18.172Z,88.98
2023-02-17T09:53:18.114Z,88.98
2023-02-17T09:54:18.138Z,88.63
2023-02-17T09:55:18.118Z,88.42
2023-02-17T09:56:19.705Z,88.53
2023-02-17T09:57:18.060Z,88.73
2023-02-17T09:58:18.056Z,88.63
2023-02-17T09:59:18.057Z,88.32
2023-02-17T10:00:18.041Z,88.53
2023-02-17T10:01:18.039Z,88.22
2023-02-17T10:02:18.078Z,88.22
2023-02-17T10:03:18.613Z,88.32
2023-02-17T10:04:18.622Z,88.32
2023-02-17T10:05:18.059Z,88.18
2023-02-17T10:06:17.923Z,87.98
2023-02-17T10:07:17.974Z,88.08
2023-02-17T10:08:17.927Z,87.87
2023-02-17T10:09:17.932Z,87.67
2023-02-17T10:10:17.942Z,87.47
2023-02-17T10:11:17.968Z,87.47
2023-02-17T10:12:17.869Z,87.47
2023-02-17T10:13:17.880Z,87.06
2023-02-17T10:14:17.850Z,87.02
2023-02-17T10:15:18.165Z,87.12
2023-02-17T10:16:17.943Z,87.23
2023-02-17T10:17:17.883Z,87.02
2023-02-17T10:18:17.850Z,86.92
2023-02-17T10:19:17.779Z,87.02
2023-02-17T10:20:17.761Z,87.12
2023-02-17T10:21:17.823Z,87.23
2023-02-17T10:22:17.784Z,87.32
2023-02-17T10:23:17.856Z,87.12
2023-02-17T10:24:17.785Z,86.92
2023-02-17T10:25:17.695Z,86.82
2023-02-17T10:26:17.762Z,86.61
2023-02-17T10:27:17.682Z,86.61
2023-02-17T10:28:17.638Z,86.82
2023-02-17T10:29:17.734Z,86.61
2023-02-17T10:30:17.696Z,86.92
2023-02-17T10:31:17.738Z,86.51
2023-02-17T10:32:20.038Z,86.82
2023-02-17T10:33:17.682Z,86.61
2023-02-17T10:34:17.595Z,86.71
2023-02-17T10:35:17.563Z,86.47
2023-02-17T10:36:17.619Z,86.47
2023-02-17T10:37:17.612Z,86.57
2023-02-17T10:38:17.545Z,86.37
2023-02-17T10:39:17.508Z,86.37
2023-02-17T10:40:17.485Z,85.86
2023-02-17T10:41:17.514Z,85.86
2023-02-17T10:42:17.500Z,86.27
2023-02-17T10:43:17.487Z,86.13
2023-02-17T10:44:17.451Z,85.82
2023-02-17T10:45:17.469Z,85.82
2023-02-17T10:46:17.470Z,86.02
2023-02-17T10:47:17.409Z,85.72
2023-02-17T10:48:17.415Z,85.72
2023-02-17T10:49:17.405Z,85.11
2023-02-17T10:50:17.385Z,85.41
2023-02-17T10:51:17.349Z,85.21
2023-02-17T10:52:17.352Z,85.41
2023-02-17T10:53:17.351Z,85.41
2023-02-17T10:54:17.306Z,85.41
2023-02-17T10:55:23.101Z,85.82
2023-02-17T10:56:18.367Z,85.41
2023-02-17T10:57:17.276Z,85.31
2023-02-17T10:58:17.270Z,85.31
2023-02-17T10:59:17.277Z,85.21
2023-02-17T11:00:17.227Z,85.31
2023-02-17T11:01:17.240Z,85.52
2023-02-17T11:02:17.226Z,85.72
2023-02-17T11:03:17.243Z,85.72
2023-02-17T11:04:17.176Z,85.52
2023-02-17T11:05:17.186Z,85.72
2023-02-17T11:06:17.148Z,85.92
2023-02-17T11:07:17.173Z,86.22
2023-02-17T11:08:17.135Z,85.82
2023-02-17T11:09:17.150Z,86.02
2023-02-17T11:10:17.138Z,85.62
2023-02-17T11:11:17.145Z,85.52
2023-02-17T11:12:17.099Z,85.62
2023-02-17T11:13:17.104Z,85.72
2023-02-17T11:14:17.052Z,85.41
2023-02-17T11:15:17.076Z,85.62
2023-02-17T11:16:17.053Z,85.41
2023-02-17T11:17:17.045Z,85.52
2023-02-17T11:18:17.016Z,85.72
2023-02-17T11:19:17.022Z,85.52
2023-02-17T11:20:16.976Z,85.62
2023-02-17T11:21:16.971Z,85.52
2023-02-17T11:22:16.946Z,85.52
2023-02-17T11:23:16.956Z,85.72
2023-02-17T11:24:16.947Z,85.62
2023-02-17T11:25:16.949Z,85.62
2023-02-17T11:26:16.890Z,85.52
2023-02-17T11:27:16.923Z,85.52
2023-02-17T11:28:16.891Z,85.72
2023-02-17T11:29:16.879Z,85.72
2023-02-17T11:30:16.899Z,85.92
2023-02-17T11:31:16.963Z,86.02
2023-02-17T11:32:16.858Z,85.88
2023-02-17T11:33:16.845Z,85.47
2023-02-17T11:34:16.804Z,85.38
2023-02-17T11:35:16.812Z,85.07
2023-02-17T11:36:16.793Z,84.97
2023-02-17T11:37:16.757Z,84.77
2023-02-17T11:38:23.876Z,84.36
2023-02-17T11:39:16.751Z,84.26
2023-02-17T11:40:16.746Z,84.16
2023-02-17T11:41:19.563Z,84.26
2023-02-17T11:42:16.772Z,83.54
2023-02-17T11:43:16.749Z,83.54
2023-02-17T11:44:16.681Z,83.71
2023-02-17T11:45:16.661Z,83.61
2023-02-17T11:46:16.716Z,83.51
2023-02-17T11:47:16.636Z,83.40
2023-02-17T11:48:16.672Z,83.40
2023-02-17T11:49:16.657Z,83.20
2023-02-17T11:50:16.591Z,83.10
2023-02-17T11:51:16.622Z,83.10
2023-02-17T11:52:16.561Z,83.10
2023-02-17T11:53:16.561Z,83.00
2023-02-17T11:54:16.556Z,82.80
2023-02-17T11:55:16.544Z,83.10
2023-02-17T11:56:16.535Z,83.10
2023-02-17T11:57:16.546Z,83.10
2023-02-17T11:58:16.486Z,82.90
2023-02-17T11:59:16.523Z,83.00
2023-02-17T12:00:16.472Z,82.90
2023-02-17T12:01:16.472Z,82.90
2023-02-17T12:02:16.427Z,82.70
2023-02-17T12:03:16.581Z,83.00
2023-02-17T12:04:16.423Z,82.70
2023-02-17T12:05:16.504Z,82.70
2023-02-17T12:06:16.458Z,82.59
2023-02-17T12:07:16.414Z,82.66
2023-02-17T12:08:16.405Z,82.70
2023-02-17T12:09:16.343Z,82.66
2023-02-17T12:10:16.322Z,82.56
2023-02-17T12:11:16.342Z,82.05
2023-02-17T12:12:16.350Z,82.05
2023-02-17T12:13:16.292Z,81.85
2023-02-17T12:14:16.284Z,81.95
2023-02-17T12:15:16.310Z,81.74
2023-02-17T12:16:16.282Z,81.95
2023-02-17T12:17:16.257Z,81.95
2023-02-17T12:18:16.226Z,81.60
2023-02-17T12:19:16.221Z,80.99
2023-02-17T12:20:16.245Z,81.04
2023-02-17T12:21:16.233Z,81.04
2023-02-17T12:22:16.169Z,81.34
2023-02-17T12:23:16.190Z,81.64
2023-02-17T12:24:16.141Z,81.64
2023-02-17T12:25:16.172Z,81.85
2023-02-17T12:26:16.158Z,81.64
2023-02-17T12:27:16.147Z,81.64
2023-02-17T12:28:16.153Z,81.74
2023-02-17T12:29:16.113Z,81.74
2023-02-17T12:30:16.211Z,81.74
2023-02-17T12:31:16.211Z,81.74
2023-02-17T12:32:16.103Z,81.34
2023-02-17T12:33:16.038Z,81.13
2023-02-17T12:34:16.067Z,81.04
2023-02-17T12:35:16.024Z,81.13
2023-02-17T12:36:15.996Z,81.13
2023-02-17T12:37:15.982Z,81.24
2023-02-17T12:38:15.985Z,81.13
2023-02-17T12:39:16.008Z,80.83
2023-02-17T12:40:16.111Z,81.34
2023-02-17T12:41:15.930Z,81.44
2023-02-17T12:42:15.936Z,81.54
2023-02-17T12:43:15.935Z,81.64
2023-02-17T12:44:15.950Z,81.74
2023-02-17T12:45:15.915Z,81.74
2023-02-17T12:46:15.954Z,81.54
2023-02-17T12:47:15.932Z,81.30
2023-02-17T12:48:15.849Z,81.20
2023-02-17T12:49:15.956Z,80.90
2023-02-17T12:50:15.870Z,80.59
2023-02-17T12:51:15.808Z,80.55
2023-02-17T12:52:15.827Z,80.49